SBCT/CWB METAR and TAF weather

Enter ICAO airport designator
Station Type Date Time Source
SBCT METAR 2019/06/26 05:00 UTC NOAA

SBCT 260500Z 02006KT CAVOK 15/11 Q1014


Station Type Date Time Source
SBCT Decoded METAR 2019/06/26 05:00 UTC NOAA

Curitiba Aeroporto , Brazil (SBCT) 25-31S 049-10W 908M
Jun 26, 2019 - 01:00 AM EDT / 2019.06.26 0500 UTC
Wind: from the NNE (020 degrees) at 7 MPH (6 KT):0
Visibility: greater than 7 mile(s):0
Temperature: 59 F (15 C)
Dew Point: 51 F (11 C)
Relative Humidity: 76%
Pressure (altimeter): 29.94 in. Hg (1014 hPa)
ob: SBCT 260500Z 02006KT CAVOK 15/11 Q1014
cycle: 5

Station Type Date Time Source
SBCT TAF 2019/06/26 06:42 UTC NOAA

TAF SBCT 260130Z 2606/2706 34010KT CAVOK TX20/2618Z TN12/2705Z
BECMG 2610/2613 02007KT 9999 SCT030 FEW035TCU PROB40
TEMPO 2614/2622 8000 SHRA SCT01 2 BKN020 FEW035TCU
BECMG 2622/2624 3000 RA BR BKN005
RMK PEB

Example: see airport list